Time;durP1;ratioP1;P1;durP2;ratioP2;P2;SDS_P1;SDS_P2;PMS_P1;PMS_P2;Temp;Humidity;BMP_temperature;BMP_pressure;BME280_temperature;BME280_humidity;BME280_pressure;Samples;Min_cycle;Max_cycle;Signal;HPM_P1;HPM_P2
2022/04/04 04:17:02;;;;;;;;;42.00;37.50;;;;;;;;6489791;39;14915;-59
2022/04/04 04:23:08;;;;;;;;;54.75;44.25;;;;;;;;6491830;39;8915;-59
2022/04/04 04:29:10;;;;;;;;;44.75;41.50;;;;;;;;6493335;46;8875;-58
2022/04/04 04:35:13;;;;;;;;;28.00;25.50;;;;;;;;6491127;39;8883;-57
2022/04/04 04:41:16;;;;;;;;;24.75;24.75;;;;;;;;6491303;46;9017;-60
2022/04/04 04:47:18;;;;;;;;;32.50;27.50;;;;;;;;6492668;39;9780;-59
2022/04/04 04:53:21;;;;;;;;;28.25;25.25;;;;;;;;6492381;39;8895;-59
2022/04/04 04:59:25;;;;;;;;;24.25;22.25;;;;;;;;6491297;46;8867;-60
2022/04/04 05:05:29;;;;;;;;;20.75;19.00;;;;;;;;6491022;46;8893;-59
2022/04/04 05:11:32;;;;;;;;;24.75;24.00;;;;;;;;6490831;31;8896;-59
2022/04/04 05:17:34;;;;;;;;;23.25;19.75;;;;;;;;6492361;39;8923;-61
2022/04/04 05:23:39;;;;;;;;;23.25;21.50;;;;;;;;6491469;39;9539;-60
2022/04/04 05:29:45;;;;;;;;;21.75;21.50;;;;;;;;6492585;39;9435;-59
2022/04/04 05:35:47;;;;;;;;;25.75;25.75;;;;;;;;6490846;46;8916;-59
2022/04/04 05:41:51;;;;;;;;;24.50;22.00;;;;;;;;6487616;31;9072;-58
2022/04/04 05:47:53;;;;;;;;;27.25;25.50;;;;;;;;6489589;46;9014;-57
2022/04/04 05:53:56;;;;;;;;;32.00;30.00;;;;;;;;6488925;39;8920;-61
2022/04/04 05:59:59;;;;;;;;;34.00;27.50;;;;;;;;6489165;39;8963;-58
2022/04/04 06:06:02;;;;;;;;;31.25;27.25;;;;;;;;6488419;31;9064;-58
2022/04/04 06:12:06;;;;;;;;;32.50;31.00;;;;;;;;6488311;39;10015;-58
2022/04/04 06:18:10;;;;;;;;;32.50;29.25;;;;;;;;6488327;47;9138;-58
2022/04/04 06:24:12;;;;;;;;;23.75;23.75;;;;;;;;6487076;31;9124;-58
2022/04/04 06:30:16;;;;;;;;;35.00;32.00;;;;;;;;6486276;31;8932;-57
2022/04/04 06:36:18;;;;;;;;;35.75;33.50;;;;;;;;6486175;47;8966;-57
2022/04/04 06:42:23;;;;;;;;;45.00;38.50;;;;;;;;6485673;31;8975;-58
2022/04/04 06:48:26;;;;;;;;;58.25;46.75;;;;;;;;6487351;47;8916;-58
2022/04/04 06:54:28;;;;;;;;;67.75;56.00;;;;;;;;6486505;47;8917;-59
2022/04/04 07:00:35;;;;;;;;;69.00;56.75;;;;;;;;6485517;47;9113;-59
2022/04/04 07:06:40;;;;;;;;;40.75;35.50;;;;;;;;6487752;39;8932;-58
2022/04/04 07:12:43;;;;;;;;;36.25;35.00;;;;;;;;6487008;31;8947;-58
2022/04/04 07:18:50;;;;;;;;;32.75;32.75;;;;;;;;6489344;46;8994;-57
2022/04/04 07:24:52;;;;;;;;;26.50;23.75;;;;;;;;6487957;39;9098;-59
2022/04/04 07:30:55;;;;;;;;;37.00;32.25;;;;;;;;6490139;31;8879;-59
2022/04/04 07:36:58;;;;;;;;;64.75;52.00;;;;;;;;6488203;46;8920;-58
2022/04/04 07:43:01;;;;;;;;;49.50;42.25;;;;;;;;6487531;31;9747;-59
2022/04/04 07:49:04;;;;;;;;;47.25;39.75;;;;;;;;6490200;31;8971;-60
2022/04/04 07:55:11;;;;;;;;;27.50;24.50;;;;;;;;6487428;39;9051;-59
2022/04/04 08:01:16;;;;;;;;;56.00;44.00;;;;;;;;6489101;39;8943;-58
2022/04/04 08:07:22;;;;;;;;;46.25;39.50;;;;;;;;6487872;31;8956;-58
2022/04/04 08:13:26;;;;;;;;;42.25;38.50;;;;;;;;6488346;39;8995;-58
2022/04/04 08:19:29;;;;;;;;;42.00;39.75;;;;;;;;6488269;31;9037;-61
2022/04/04 08:25:32;;;;;;;;;33.50;30.75;;;;;;;;6487570;39;8991;-59
2022/04/04 08:31:38;;;;;;;;;29.50;27.00;;;;;;;;6489199;39;8881;-58
2022/04/04 08:37:46;;;;;;;;;31.50;25.00;;;;;;;;6485105;39;8912;-59
2022/04/04 08:43:49;;;;;;;;;34.50;31.25;;;;;;;;6488201;39;8919;-59
2022/04/04 08:49:54;;;;;;;;;26.00;23.75;;;;;;;;6487670;46;8971;-59
2022/04/04 08:55:57;;;;;;;;;24.50;22.50;;;;;;;;6486734;39;8916;-58
2022/04/04 09:02:01;;;;;;;;;31.00;27.75;;;;;;;;6488020;31;8955;-60
2022/04/04 09:08:06;;;;;;;;;27.00;26.75;;;;;;;;6487478;39;8925;-58
2022/04/04 09:14:08;;;;;;;;;26.25;25.75;;;;;;;;6487457;46;8968;-59
2022/04/04 09:20:11;;;;;;;;;29.00;28.00;;;;;;;;6488454;39;9043;-58
2022/04/04 09:26:35;;;;;;;;;33.25;33.25;;;;;;;;6486514;46;8935;-59
2022/04/04 09:32:43;;;;;;;;;29.75;29.75;;;;;;;;6488612;39;8944;-59
2022/04/04 09:39:04;;;;;;;;;24.75;23.25;;;;;;;;6486826;39;8925;-58
2022/04/04 09:45:13;;;;;;;;;26.25;26.00;;;;;;;;6489467;39;8881;-59
2022/04/04 09:51:33;;;;;;;;;27.25;24.50;;;;;;;;6487122;46;8960;-58
2022/04/04 09:57:36;;;;;;;;;25.00;23.25;;;;;;;;6487646;39;8861;-58
2022/04/04 10:03:41;;;;;;;;;25.75;25.25;;;;;;;;6486496;39;9070;-60
2022/04/04 10:09:44;;;;;;;;;29.75;27.25;;;;;;;;6487613;39;8968;-61
2022/04/04 10:15:48;;;;;;;;;25.50;23.75;;;;;;;;6488284;39;9614;-60
2022/04/04 10:21:51;;;;;;;;;27.00;23.25;;;;;;;;6485074;39;9087;-58
2022/04/04 10:27:59;;;;;;;;;23.00;22.00;;;;;;;;6487944;31;9000;-59
2022/04/04 10:34:11;;;;;;;;;65.00;53.50;;;;;;;;6487103;47;8920;-60
2022/04/04 10:40:29;;;;;;;;;15.75;14.25;;;;;;;;6488144;39;8993;-60
2022/04/04 10:46:31;;;;;;;;;10.00;8.75;;;;;;;;6489567;39;8986;-62
2022/04/04 10:52:43;;;;;;;;;13.25;13.25;;;;;;;;6488360;39;8941;-60
2022/04/04 10:58:46;;;;;;;;;19.75;18.75;;;;;;;;6490411;39;8935;-59
2022/04/04 11:11:19;;;;;;;;;17.00;16.00;;;;;;;;6488644;39;9065;-58
2022/04/04 11:17:30;;;;;;;;;14.75;14.75;;;;;;;;6488594;46;8953;-59
2022/04/04 11:23:34;;;;;;;;;9.75;8.50;;;;;;;;6488877;31;8944;-61
2022/04/04 11:29:47;;;;;;;;;20.50;20.50;;;;;;;;6489156;46;8994;-59
2022/04/04 11:35:54;;;;;;;;;14.25;14.25;;;;;;;;6483986;46;8937;-60
2022/04/04 11:41:59;;;;;;;;;18.75;17.25;;;;;;;;6489443;39;8959;-61
2022/04/04 11:48:06;;;;;;;;;18.00;16.75;;;;;;;;6488392;46;9084;-59
2022/04/04 11:54:11;;;;;;;;;12.25;11.00;;;;;;;;6487461;39;9575;-60
2022/04/04 12:00:21;;;;;;;;;37.00;35.00;;;;;;;;6488484;39;8980;-59
2022/04/04 12:06:23;;;;;;;;;14.00;12.25;;;;;;;;6488721;31;9053;-59
2022/04/04 12:12:29;;;;;;;;;28.25;27.25;;;;;;;;6490060;39;8963;-59
2022/04/04 12:18:33;;;;;;;;;23.50;20.25;;;;;;;;6487909;39;8950;-59
2022/04/04 12:24:55;;;;;;;;;14.00;11.67;;;;;;;;6488553;39;8929;-61
2022/04/04 12:31:27;;;;;;;;;19.50;17.00;;;;;;;;6488539;46;8921;-58
2022/04/04 12:37:37;;;;;;;;;31.50;29.25;;;;;;;;6488612;39;9599;-60
2022/04/04 12:43:47;;;;;;;;;21.25;19.50;;;;;;;;6489235;46;8928;-61
2022/04/04 12:50:12;;;;;;;;;24.00;22.75;;;;;;;;6488981;31;9172;-61
2022/04/04 12:56:16;;;;;;;;;18.25;18.25;;;;;;;;6488564;39;8931;-61
2022/04/04 13:02:34;;;;;;;;;19.25;19.25;;;;;;;;6488025;31;9481;-60
2022/04/04 13:08:38;;;;;;;;;22.25;22.00;;;;;;;;6490005;39;9708;-60
2022/04/04 13:14:48;;;;;;;;;22.25;19.25;;;;;;;;6487949;39;8987;-60
2022/04/04 13:20:52;;;;;;;;;24.75;22.25;;;;;;;;6488763;39;8963;-60
2022/04/04 13:26:55;;;;;;;;;25.67;25.67;;;;;;;;6488414;39;8947;-59
2022/04/04 13:33:04;;;;;;;;;27.00;25.75;;;;;;;;6486387;46;9026;-60
2022/04/04 13:39:09;;;;;;;;;27.00;24.00;;;;;;;;6489177;39;8904;-60
2022/04/04 13:45:12;;;;;;;;;31.50;30.75;;;;;;;;6488396;39;8995;-61
2022/04/04 13:51:21;;;;;;;;;28.50;28.50;;;;;;;;6488405;39;9031;-59
2022/04/04 13:57:23;;;;;;;;;29.25;25.00;;;;;;;;6490478;39;8916;-63
2022/04/04 14:03:31;;;;;;;;;33.75;31.00;;;;;;;;6308979;36;9999647;-61
2022/04/04 14:09:34;;;;;;;;;31.00;29.50;;;;;;;;6489379;31;8924;-60
2022/04/04 14:15:37;;;;;;;;;33.25;32.75;;;;;;;;6490253;46;8963;-62
2022/04/04 14:21:39;;;;;;;;;33.75;32.25;;;;;;;;6490367;39;9555;-61
2022/04/04 14:27:43;;;;;;;;;28.00;25.50;;;;;;;;6489782;39;9431;-61
2022/04/04 14:33:45;;;;;;;;;36.00;32.50;;;;;;;;6489651;39;9522;-61
2022/04/04 14:39:48;;;;;;;;;35.25;31.00;;;;;;;;6490461;31;8966;-60
2022/04/04 14:45:50;;;;;;;;;34.25;31.00;;;;;;;;6489610;46;8956;-62
2022/04/04 14:51:53;;;;;;;;;33.00;30.75;;;;;;;;6489653;31;8952;-61
2022/04/04 14:57:56;;;;;;;;;38.25;30.50;;;;;;;;6490532;39;8876;-61
2022/04/04 15:03:59;;;;;;;;;39.75;36.00;;;;;;;;6490247;39;8888;-60
2022/04/04 15:10:23;;;;;;;;;31.75;30.50;;;;;;;;6489756;47;8876;-61
2022/04/04 15:16:29;;;;;;;;;32.25;30.00;;;;;;;;6490307;39;8900;-59
2022/04/04 15:22:35;;;;;;;;;30.50;26.25;;;;;;;;6490057;39;8920;-60
2022/04/04 15:28:38;;;;;;;;;38.25;34.00;;;;;;;;6492086;31;8912;-61
2022/04/04 15:34:42;;;;;;;;;33.00;33.00;;;;;;;;6492365;39;8853;-59
2022/04/04 15:40:53;;;;;;;;;38.25;33.25;;;;;;;;6492276;39;8967;-64
2022/04/04 15:47:00;;;;;;;;;38.00;35.50;;;;;;;;6490552;39;8869;-60
2022/04/04 15:53:02;;;;;;;;;32.25;27.00;;;;;;;;6491988;39;8960;-60
2022/04/04 15:59:13;;;;;;;;;33.50;32.25;;;;;;;;6491520;31;8889;-60
2022/04/04 16:05:15;;;;;;;;;41.75;35.75;;;;;;;;6490589;39;8892;-59
2022/04/04 16:11:20;;;;;;;;;37.25;34.75;;;;;;;;6491485;46;8931;-61
2022/04/04 16:17:26;;;;;;;;;29.50;29.50;;;;;;;;6492027;39;8927;-62
2022/04/04 16:23:28;;;;;;;;;38.00;32.00;;;;;;;;6491082;39;9586;-61
2022/04/04 16:29:32;;;;;;;;;31.50;28.50;;;;;;;;6491251;39;8888;-59
2022/04/04 16:35:35;;;;;;;;;35.75;32.50;;;;;;;;6491536;31;8934;-60
2022/04/04 16:41:38;;;;;;;;;35.50;31.25;;;;;;;;6490736;39;8972;-61
2022/04/04 16:47:42;;;;;;;;;46.25;40.00;;;;;;;;6491413;39;9542;-59
2022/04/04 16:53:46;;;;;;;;;43.00;37.75;;;;;;;;6492230;31;8931;-61
2022/04/04 16:59:49;;;;;;;;;44.75;40.50;;;;;;;;6491278;39;9551;-60
2022/04/04 17:05:53;;;;;;;;;38.50;36.75;;;;;;;;6491519;39;8863;-60
2022/04/04 17:11:55;;;;;;;;;41.50;36.75;;;;;;;;6490644;46;8843;-59
2022/04/04 17:17:58;;;;;;;;;40.00;37.50;;;;;;;;6490923;39;9574;-59
2022/04/04 17:24:05;;;;;;;;;44.75;41.25;;;;;;;;6491472;31;9003;-59
2022/04/04 17:30:15;;;;;;;;;41.75;37.25;;;;;;;;6490371;31;8868;-62
2022/04/04 17:36:17;;;;;;;;;45.00;41.75;;;;;;;;6490758;46;8999;-59
2022/04/04 17:42:21;;;;;;;;;45.25;41.50;;;;;;;;6490842;39;9026;-58
2022/04/04 17:48:23;;;;;;;;;44.00;40.50;;;;;;;;6490519;39;8896;-61
2022/04/04 17:54:28;;;;;;;;;47.25;40.00;;;;;;;;6490580;46;8912;-60
2022/04/04 18:00:31;;;;;;;;;48.75;42.75;;;;;;;;6489813;46;8908;-60
2022/04/04 18:06:34;;;;;;;;;51.50;43.75;;;;;;;;6490297;31;10168;-60
2022/04/04 18:12:39;;;;;;;;;48.25;40.75;;;;;;;;6490369;39;8889;-59
2022/04/04 18:18:44;;;;;;;;;40.50;38.25;;;;;;;;6489468;39;8954;-58
2022/04/04 18:24:46;;;;;;;;;50.25;43.00;;;;;;;;6491260;39;9094;-59
2022/04/04 18:30:50;;;;;;;;;44.25;42.25;;;;;;;;6489552;31;8908;-59
2022/04/04 18:36:53;;;;;;;;;41.75;35.50;;;;;;;;6490025;47;8872;-60
2022/04/04 18:42:57;;;;;;;;;41.25;40.00;;;;;;;;6490537;31;8935;-59
2022/04/04 18:48:59;;;;;;;;;46.00;42.50;;;;;;;;6489759;47;8851;-58
2022/04/04 18:55:03;;;;;;;;;39.50;33.00;;;;;;;;6490204;39;8863;-58
2022/04/04 19:01:05;;;;;;;;;52.00;42.25;;;;;;;;6491789;39;8946;-58
2022/04/04 19:07:09;;;;;;;;;50.25;43.50;;;;;;;;6492402;39;8828;-61
2022/04/04 19:13:14;;;;;;;;;45.50;41.75;;;;;;;;6491981;39;9708;-59
2022/04/04 19:19:17;;;;;;;;;53.00;47.00;;;;;;;;6491640;46;8888;-61
2022/04/04 19:25:19;;;;;;;;;53.25;42.00;;;;;;;;6492416;39;8848;-60
2022/04/04 19:31:27;;;;;;;;;44.00;42.00;;;;;;;;6490638;46;8904;-59
2022/04/04 19:37:31;;;;;;;;;50.50;44.00;;;;;;;;6491600;46;8832;-58
2022/04/04 19:43:34;;;;;;;;;52.50;45.25;;;;;;;;6527260;36;8883;-59
2022/04/04 19:49:38;;;;;;;;;49.50;44.25;;;;;;;;6491600;39;9005;-59
2022/04/04 19:55:42;;;;;;;;;50.75;45.25;;;;;;;;6492134;31;8873;-59
2022/04/04 20:01:45;;;;;;;;;50.50;44.00;;;;;;;;6491481;39;8956;-59
2022/04/04 20:07:50;;;;;;;;;48.50;45.50;;;;;;;;6491489;31;8897;-58
2022/04/04 20:13:54;;;;;;;;;47.75;43.50;;;;;;;;6491066;39;8949;-59
2022/04/04 20:19:58;;;;;;;;;45.00;39.75;;;;;;;;6491223;46;8956;-58
2022/04/04 20:26:01;;;;;;;;;49.25;44.00;;;;;;;;6490911;46;8890;-58
2022/04/04 20:32:05;;;;;;;;;47.50;41.50;;;;;;;;6491410;39;8931;-58
2022/04/04 20:38:10;;;;;;;;;41.00;37.50;;;;;;;;6491233;39;8885;-58
2022/04/04 20:44:15;;;;;;;;;43.25;40.50;;;;;;;;6491096;39;8973;-59
2022/04/04 20:50:18;;;;;;;;;50.25;46.00;;;;;;;;6491109;46;8865;-58
2022/04/04 20:56:20;;;;;;;;;48.50;43.75;;;;;;;;6491409;39;8924;-58
2022/04/04 21:02:24;;;;;;;;;54.75;46.00;;;;;;;;6490481;46;8992;-58
2022/04/04 21:08:27;;;;;;;;;54.00;46.00;;;;;;;;6491070;46;8882;-58
2022/04/04 21:14:30;;;;;;;;;59.00;46.25;;;;;;;;6490526;39;9293;-58
2022/04/04 21:20:34;;;;;;;;;51.00;42.75;;;;;;;;6491631;39;8933;-59
2022/04/04 21:26:37;;;;;;;;;53.25;46.50;;;;;;;;6491051;31;8948;-60
2022/04/04 21:32:43;;;;;;;;;52.50;44.50;;;;;;;;6489947;39;8912;-59
2022/04/04 21:38:46;;;;;;;;;38.50;38.00;;;;;;;;6491638;31;8870;-58
2022/04/04 21:44:50;;;;;;;;;51.50;47.50;;;;;;;;6490366;39;8965;-58
2022/04/04 21:50:52;;;;;;;;;51.75;42.50;;;;;;;;6490383;46;8911;-59
2022/04/04 21:56:55;;;;;;;;;47.75;43.00;;;;;;;;6490980;31;9516;-59
2022/04/04 22:02:59;;;;;;;;;57.25;47.25;;;;;;;;6490168;46;8944;-58
2022/04/04 22:09:03;;;;;;;;;46.25;43.25;;;;;;;;6490707;46;8849;-58
2022/04/04 22:15:05;;;;;;;;;54.50;47.00;;;;;;;;6491368;31;9574;-59
2022/04/04 22:21:08;;;;;;;;;52.00;44.75;;;;;;;;6490161;39;8972;-59
2022/04/04 22:27:11;;;;;;;;;52.75;44.75;;;;;;;;6489514;31;8889;-60
2022/04/04 22:33:13;;;;;;;;;49.00;44.00;;;;;;;;6490520;46;8869;-60
2022/04/04 22:39:18;;;;;;;;;47.25;44.00;;;;;;;;6492067;39;9521;-59
2022/04/04 22:45:23;;;;;;;;;47.75;44.00;;;;;;;;6491615;46;8941;-59
2022/04/04 22:51:26;;;;;;;;;51.50;46.00;;;;;;;;6491600;46;8937;-59
2022/04/04 22:57:28;;;;;;;;;52.75;45.00;;;;;;;;6491617;46;8862;-59
2022/04/04 23:03:31;;;;;;;;;55.75;46.75;;;;;;;;6492950;31;8909;-60
2022/04/04 23:09:34;;;;;;;;;48.75;45.00;;;;;;;;6492791;39;8878;-58
2022/04/04 23:15:36;;;;;;;;;42.75;40.25;;;;;;;;6491360;31;9053;-59
2022/04/04 23:21:39;;;;;;;;;47.00;44.25;;;;;;;;6491686;39;8920;-59
2022/04/04 23:27:42;;;;;;;;;49.25;46.25;;;;;;;;6491191;39;8868;-58
2022/04/04 23:33:45;;;;;;;;;53.50;45.50;;;;;;;;6491115;46;8878;-59
2022/04/04 23:39:48;;;;;;;;;47.50;43.50;;;;;;;;6492060;39;8880;-59
2022/04/04 23:45:52;;;;;;;;;47.00;41.75;;;;;;;;6490883;46;8932;-59
2022/04/04 23:51:54;;;;;;;;;55.50;47.00;;;;;;;;6491523;39;9420;-59
2022/04/04 23:57:56;;;;;;;;;53.75;46.25;;;;;;;;6492076;39;8865;-58
